sensor_id;sensor_type;location;lat;lon;timestamp;temperature;humidity
39849;DHT22;25518;47.878;15.914;2024-01-15T00:01:46;-4.30;99.90
39849;DHT22;25518;47.878;15.914;2024-01-15T00:04:39;-4.30;99.90
39849;DHT22;25518;47.878;15.914;2024-01-15T00:07:31;-4.40;99.90
39849;DHT22;25518;47.878;15.914;2024-01-15T00:10:23;-4.40;99.90
39849;DHT22;25518;47.878;15.914;2024-01-15T00:13:14;-4.30;99.90
39849;DHT22;25518;47.878;15.914;2024-01-15T00:16:06;-4.20;99.90
39849;DHT22;25518;47.878;15.914;2024-01-15T00:18:57;-4.00;99.90
39849;DHT22;25518;47.878;15.914;2024-01-15T00:21:48;-4.10;99.90
39849;DHT22;25518;47.878;15.914;2024-01-15T00:24:40;-4.00;99.90
39849;DHT22;25518;47.878;15.914;2024-01-15T00:27:32;-4.00;99.90
39849;DHT22;25518;47.878;15.914;2024-01-15T00:30:23;-4.00;99.90
39849;DHT22;25518;47.878;15.914;2024-01-15T00:33:15;-4.00;99.90
39849;DHT22;25518;47.878;15.914;2024-01-15T00:36:06;-3.90;99.90
39849;DHT22;25518;47.878;15.914;2024-01-15T00:38:58;-3.70;99.90
39849;DHT22;25518;47.878;15.914;2024-01-15T00:41:49;-3.60;99.90
39849;DHT22;25518;47.878;15.914;2024-01-15T00:44:41;-3.50;99.90
39849;DHT22;25518;47.878;15.914;2024-01-15T00:47:33;-3.40;99.90
39849;DHT22;25518;47.878;15.914;2024-01-15T00:50:25;-3.40;99.90
39849;DHT22;25518;47.878;15.914;2024-01-15T00:53:17;-3.30;99.90
39849;DHT22;25518;47.878;15.914;2024-01-15T00:56:08;-3.20;99.90
39849;DHT22;25518;47.878;15.914;2024-01-15T00:59:00;-3.00;99.90
39849;DHT22;25518;47.878;15.914;2024-01-15T01:01:52;-3.20;99.90
39849;DHT22;25518;47.878;15.914;2024-01-15T01:04:43;-3.20;99.90
39849;DHT22;25518;47.878;15.914;2024-01-15T01:07:34;-3.50;99.90
39849;DHT22;25518;47.878;15.914;2024-01-15T01:10:25;-3.50;99.90
39849;DHT22;25518;47.878;15.914;2024-01-15T01:13:17;-3.40;99.90
39849;DHT22;25518;47.878;15.914;2024-01-15T01:16:09;-3.40;99.90
39849;DHT22;25518;47.878;15.914;2024-01-15T01:19:00;-3.40;99.90
39849;DHT22;25518;47.878;15.914;2024-01-15T01:21:51;-3.30;99.90
39849;DHT22;25518;47.878;15.914;2024-01-15T01:24:43;-3.30;99.90
39849;DHT22;25518;47.878;15.914;2024-01-15T01:27:35;-3.50;99.90
39849;DHT22;25518;47.878;15.914;2024-01-15T01:30:27;-3.60;99.90
39849;DHT22;25518;47.878;15.914;2024-01-15T01:33:18;-3.50;99.90
39849;DHT22;25518;47.878;15.914;2024-01-15T01:36:10;-3.40;99.90
39849;DHT22;25518;47.878;15.914;2024-01-15T01:39:01;-3.30;99.90
39849;DHT22;25518;47.878;15.914;2024-01-15T01:41:53;-3.20;99.90
39849;DHT22;25518;47.878;15.914;2024-01-15T01:44:44;-3.10;99.90
39849;DHT22;25518;47.878;15.914;2024-01-15T01:47:36;-3.10;99.90
39849;DHT22;25518;47.878;15.914;2024-01-15T01:50:29;-3.00;99.90
39849;DHT22;25518;47.878;15.914;2024-01-15T01:53:21;-3.20;99.90
39849;DHT22;25518;47.878;15.914;2024-01-15T01:56:14;-3.20;99.90
39849;DHT22;25518;47.878;15.914;2024-01-15T01:59:07;-3.20;99.90
39849;DHT22;25518;47.878;15.914;2024-01-15T02:02:02;-3.20;99.90
39849;DHT22;25518;47.878;15.914;2024-01-15T02:04:55;-3.10;99.90
39849;DHT22;25518;47.878;15.914;2024-01-15T02:07:46;-3.10;99.90
39849;DHT22;25518;47.878;15.914;2024-01-15T02:10:37;-3.00;99.90
39849;DHT22;25518;47.878;15.914;2024-01-15T02:13:29;-3.10;99.90
39849;DHT22;25518;47.878;15.914;2024-01-15T02:16:20;-3.10;99.90
39849;DHT22;25518;47.878;15.914;2024-01-15T02:19:16;-3.00;99.90
39849;DHT22;25518;47.878;15.914;2024-01-15T02:22:08;-2.90;99.90
39849;DHT22;25518;47.878;15.914;2024-01-15T02:24:59;-2.90;99.90
39849;DHT22;25518;47.878;15.914;2024-01-15T02:27:51;-2.80;99.90
39849;DHT22;25518;47.878;15.914;2024-01-15T02:30:43;-2.80;99.90
39849;DHT22;25518;47.878;15.914;2024-01-15T02:33:35;-3.90;99.90
39849;DHT22;25518;47.878;15.914;2024-01-15T02:36:26;-2.60;99.90
39849;DHT22;25518;47.878;15.914;2024-01-15T02:39:18;-2.60;99.90
39849;DHT22;25518;47.878;15.914;2024-01-15T02:42:09;-2.50;99.90
39849;DHT22;25518;47.878;15.914;2024-01-15T02:45:00;-2.40;99.90
39849;DHT22;25518;47.878;15.914;2024-01-15T02:47:52;-2.30;99.90
39849;DHT22;25518;47.878;15.914;2024-01-15T02:50:43;-2.10;99.90
39849;DHT22;25518;47.878;15.914;2024-01-15T02:53:36;-2.00;99.90
39849;DHT22;25518;47.878;15.914;2024-01-15T02:56:28;-1.40;99.90
39849;DHT22;25518;47.878;15.914;2024-01-15T02:59:19;-1.10;99.90
39849;DHT22;25518;47.878;15.914;2024-01-15T03:02:10;-1.10;99.90
39849;DHT22;25518;47.878;15.914;2024-01-15T03:05:02;-0.60;99.90
39849;DHT22;25518;47.878;15.914;2024-01-15T03:07:53;-0.40;99.90
39849;DHT22;25518;47.878;15.914;2024-01-15T03:10:45;-0.40;99.90
39849;DHT22;25518;47.878;15.914;2024-01-15T03:13:37;-0.10;99.90
39849;DHT22;25518;47.878;15.914;2024-01-15T03:16:28;0.40;99.90
39849;DHT22;25518;47.878;15.914;2024-01-15T03:19:19;0.80;99.90
39849;DHT22;25518;47.878;15.914;2024-01-15T03:22:11;0.80;99.90
39849;DHT22;25518;47.878;15.914;2024-01-15T03:25:03;1.60;99.90
39849;DHT22;25518;47.878;15.914;2024-01-15T03:27:55;1.70;99.90
39849;DHT22;25518;47.878;15.914;2024-01-15T03:30:46;1.80;99.90
39849;DHT22;25518;47.878;15.914;2024-01-15T03:33:42;1.70;99.90
39849;DHT22;25518;47.878;15.914;2024-01-15T03:36:34;1.80;99.90
39849;DHT22;25518;47.878;15.914;2024-01-15T03:39:25;1.90;99.90
39849;DHT22;25518;47.878;15.914;2024-01-15T03:42:17;1.90;99.90
39849;DHT22;25518;47.878;15.914;2024-01-15T03:45:08;2.10;99.90
39849;DHT22;25518;47.878;15.914;2024-01-15T03:47:59;2.00;99.90
39849;DHT22;25518;47.878;15.914;2024-01-15T03:50:51;2.00;99.90
39849;DHT22;25518;47.878;15.914;2024-01-15T03:53:42;1.90;99.90
39849;DHT22;25518;47.878;15.914;2024-01-15T03:56:34;1.70;99.90
39849;DHT22;25518;47.878;15.914;2024-01-15T03:59:26;1.70;99.90
39849;DHT22;25518;47.878;15.914;2024-01-15T04:02:17;1.60;99.90
39849;DHT22;25518;47.878;15.914;2024-01-15T04:05:09;1.40;99.90
39849;DHT22;25518;47.878;15.914;2024-01-15T04:08:00;1.40;99.90
39849;DHT22;25518;47.878;15.914;2024-01-15T04:10:52;0.10;99.90
39849;DHT22;25518;47.878;15.914;2024-01-15T04:13:43;1.30;99.90
39849;DHT22;25518;47.878;15.914;2024-01-15T04:16:34;1.30;99.90
39849;DHT22;25518;47.878;15.914;2024-01-15T04:19:26;1.30;99.90
39849;DHT22;25518;47.878;15.914;2024-01-15T04:22:17;1.40;99.90
39849;DHT22;25518;47.878;15.914;2024-01-15T04:25:08;1.40;99.90
39849;DHT22;25518;47.878;15.914;2024-01-15T04:28:00;1.50;99.90
39849;DHT22;25518;47.878;15.914;2024-01-15T04:30:51;1.50;99.90
39849;DHT22;25518;47.878;15.914;2024-01-15T04:33:42;1.40;99.90
39849;DHT22;25518;47.878;15.914;2024-01-15T04:36:39;1.50;99.90
39849;DHT22;25518;47.878;15.914;2024-01-15T04:39:31;1.50;99.90
39849;DHT22;25518;47.878;15.914;2024-01-15T04:42:22;1.40;99.90
39849;DHT22;25518;47.878;15.914;2024-01-15T04:45:14;1.50;99.90
39849;DHT22;25518;47.878;15.914;2024-01-15T04:48:05;1.50;99.90
39849;DHT22;25518;47.878;15.914;2024-01-15T04:50:57;1.60;99.90
39849;DHT22;25518;47.878;15.914;2024-01-15T04:53:48;1.50;99.90
39849;DHT22;25518;47.878;15.914;2024-01-15T04:56:39;1.50;99.90
39849;DHT22;25518;47.878;15.914;2024-01-15T04:59:31;0.90;99.90
39849;DHT22;25518;47.878;15.914;2024-01-15T05:02:22;1.40;99.90
39849;DHT22;25518;47.878;15.914;2024-01-15T05:05:14;1.40;99.90
39849;DHT22;25518;47.878;15.914;2024-01-15T05:08:05;1.40;99.90
39849;DHT22;25518;47.878;15.914;2024-01-15T05:10:56;1.30;99.90
39849;DHT22;25518;47.878;15.914;2024-01-15T05:13:48;1.20;99.90
39849;DHT22;25518;47.878;15.914;2024-01-15T05:16:46;1.10;99.90
39849;DHT22;25518;47.878;15.914;2024-01-15T05:19:37;1.10;99.90
39849;DHT22;25518;47.878;15.914;2024-01-15T05:22:29;1.20;99.90
39849;DHT22;25518;47.878;15.914;2024-01-15T05:25:20;1.20;99.90
39849;DHT22;25518;47.878;15.914;2024-01-15T05:28:11;1.10;99.90
39849;DHT22;25518;47.878;15.914;2024-01-15T05:31:03;1.10;99.90
39849;DHT22;25518;47.878;15.914;2024-01-15T05:33:55;1.00;99.90
39849;DHT22;25518;47.878;15.914;2024-01-15T05:36:46;1.00;99.90
39849;DHT22;25518;47.878;15.914;2024-01-15T05:39:38;1.00;99.90
39849;DHT22;25518;47.878;15.914;2024-01-15T05:42:30;0.90;99.90
39849;DHT22;25518;47.878;15.914;2024-01-15T05:45:23;0.90;99.90
39849;DHT22;25518;47.878;15.914;2024-01-15T05:48:14;-1.00;99.90
39849;DHT22;25518;47.878;15.914;2024-01-15T05:51:05;0.90;99.90
39849;DHT22;25518;47.878;15.914;2024-01-15T05:53:56;0.80;99.90
39849;DHT22;25518;47.878;15.914;2024-01-15T05:56:48;0.90;99.90
39849;DHT22;25518;47.878;15.914;2024-01-15T05:59:39;0.90;99.90
39849;DHT22;25518;47.878;15.914;2024-01-15T06:02:30;1.00;99.90
39849;DHT22;25518;47.878;15.914;2024-01-15T06:05:22;1.00;99.90
39849;DHT22;25518;47.878;15.914;2024-01-15T06:08:13;0.90;99.90
39849;DHT22;25518;47.878;15.914;2024-01-15T06:11:07;1.00;99.90
39849;DHT22;25518;47.878;15.914;2024-01-15T06:13:59;0.90;99.90
39849;DHT22;25518;47.878;15.914;2024-01-15T06:16:52;0.90;99.90
39849;DHT22;25518;47.878;15.914;2024-01-15T06:19:43;0.90;99.90
39849;DHT22;25518;47.878;15.914;2024-01-15T06:22:35;0.90;99.90
39849;DHT22;25518;47.878;15.914;2024-01-15T06:25:27;0.80;99.90
39849;DHT22;25518;47.878;15.914;2024-01-15T06:28:18;0.70;99.90
39849;DHT22;25518;47.878;15.914;2024-01-15T06:31:10;0.80;99.90
39849;DHT22;25518;47.878;15.914;2024-01-15T06:34:01;0.70;99.90
39849;DHT22;25518;47.878;15.914;2024-01-15T06:36:52;0.70;99.90
39849;DHT22;25518;47.878;15.914;2024-01-15T06:39:44;0.60;99.90
39849;DHT22;25518;47.878;15.914;2024-01-15T06:42:35;0.60;99.90
39849;DHT22;25518;47.878;15.914;2024-01-15T06:45:26;0.70;99.90
39849;DHT22;25518;47.878;15.914;2024-01-15T06:48:18;0.70;99.90
39849;DHT22;25518;47.878;15.914;2024-01-15T06:51:09;0.70;99.90
39849;DHT22;25518;47.878;15.914;2024-01-15T06:54:00;0.70;99.90
39849;DHT22;25518;47.878;15.914;2024-01-15T06:56:52;0.60;99.90
39849;DHT22;25518;47.878;15.914;2024-01-15T06:59:43;0.60;99.90
39849;DHT22;25518;47.878;15.914;2024-01-15T07:02:34;0.60;99.90
39849;DHT22;25518;47.878;15.914;2024-01-15T07:05:25;0.60;99.90
39849;DHT22;25518;47.878;15.914;2024-01-15T07:08:17;0.60;99.90
39849;DHT22;25518;47.878;15.914;2024-01-15T07:11:08;0.60;99.90
39849;DHT22;25518;47.878;15.914;2024-01-15T07:14:00;0.70;99.90
39849;DHT22;25518;47.878;15.914;2024-01-15T07:16:51;0.60;99.90
39849;DHT22;25518;47.878;15.914;2024-01-15T07:19:42;0.60;99.90
39849;DHT22;25518;47.878;15.914;2024-01-15T07:22:35;0.50;99.90
39849;DHT22;25518;47.878;15.914;2024-01-15T07:25:26;0.50;99.90
39849;DHT22;25518;47.878;15.914;2024-01-15T07:28:18;0.60;99.90
39849;DHT22;25518;47.878;15.914;2024-01-15T07:31:09;0.50;99.90
39849;DHT22;25518;47.878;15.914;2024-01-15T07:34:01;0.60;99.90
39849;DHT22;25518;47.878;15.914;2024-01-15T07:36:52;0.60;99.90
39849;DHT22;25518;47.878;15.914;2024-01-15T07:39:43;0.70;99.90
39849;DHT22;25518;47.878;15.914;2024-01-15T07:42:35;0.60;99.90
39849;DHT22;25518;47.878;15.914;2024-01-15T07:45:27;0.60;99.90
39849;DHT22;25518;47.878;15.914;2024-01-15T07:48:18;0.50;99.90
39849;DHT22;25518;47.878;15.914;2024-01-15T07:51:09;0.50;99.90
39849;DHT22;25518;47.878;15.914;2024-01-15T07:54:01;0.50;99.90
39849;DHT22;25518;47.878;15.914;2024-01-15T07:56:59;0.50;99.90
39849;DHT22;25518;47.878;15.914;2024-01-15T07:59:50;0.50;99.90
39849;DHT22;25518;47.878;15.914;2024-01-15T08:02:42;0.40;99.90
39849;DHT22;25518;47.878;15.914;2024-01-15T08:05:36;0.40;99.90
39849;DHT22;25518;47.878;15.914;2024-01-15T08:08:27;0.40;99.90
39849;DHT22;25518;47.878;15.914;2024-01-15T08:11:19;0.50;99.90
39849;DHT22;25518;47.878;15.914;2024-01-15T08:14:11;0.50;99.90
39849;DHT22;25518;47.878;15.914;2024-01-15T08:17:02;0.40;99.90
39849;DHT22;25518;47.878;15.914;2024-01-15T08:19:54;0.50;99.90
39849;DHT22;25518;47.878;15.914;2024-01-15T08:22:45;0.60;99.90
39849;DHT22;25518;47.878;15.914;2024-01-15T08:25:38;0.60;99.90
39849;DHT22;25518;47.878;15.914;2024-01-15T08:28:29;0.70;99.90
39849;DHT22;25518;47.878;15.914;2024-01-15T08:31:21;0.70;99.90
39849;DHT22;25518;47.878;15.914;2024-01-15T08:34:13;0.80;99.90
39849;DHT22;25518;47.878;15.914;2024-01-15T08:37:04;0.90;99.90
39849;DHT22;25518;47.878;15.914;2024-01-15T08:39:55;0.90;99.90
39849;DHT22;25518;47.878;15.914;2024-01-15T08:42:47;0.90;99.90
39849;DHT22;25518;47.878;15.914;2024-01-15T08:45:38;0.80;99.90
39849;DHT22;25518;47.878;15.914;2024-01-15T08:48:30;1.00;99.90
39849;DHT22;25518;47.878;15.914;2024-01-15T08:51:21;0.90;99.90
39849;DHT22;25518;47.878;15.914;2024-01-15T08:54:13;0.80;99.90
39849;DHT22;25518;47.878;15.914;2024-01-15T08:57:04;0.90;99.90
39849;DHT22;25518;47.878;15.914;2024-01-15T08:59:55;0.80;99.90
39849;DHT22;25518;47.878;15.914;2024-01-15T09:02:47;0.80;99.90
39849;DHT22;25518;47.878;15.914;2024-01-15T09:05:38;0.90;99.90
39849;DHT22;25518;47.878;15.914;2024-01-15T09:08:29;1.00;99.90
39849;DHT22;25518;47.878;15.914;2024-01-15T09:11:21;1.10;99.90
39849;DHT22;25518;47.878;15.914;2024-01-15T09:14:12;1.10;99.90
39849;DHT22;25518;47.878;15.914;2024-01-15T09:17:04;1.10;99.90
39849;DHT22;25518;47.878;15.914;2024-01-15T09:19:56;1.20;99.90
39849;DHT22;25518;47.878;15.914;2024-01-15T09:22:47;-0.70;99.90
39849;DHT22;25518;47.878;15.914;2024-01-15T09:25:38;1.10;99.90
39849;DHT22;25518;47.878;15.914;2024-01-15T09:28:30;1.30;99.90
39849;DHT22;25518;47.878;15.914;2024-01-15T09:31:21;1.30;99.90
39849;DHT22;25518;47.878;15.914;2024-01-15T09:34:13;1.40;99.90
39849;DHT22;25518;47.878;15.914;2024-01-15T09:37:04;1.50;99.90
39849;DHT22;25518;47.878;15.914;2024-01-15T09:39:56;1.50;99.90
39849;DHT22;25518;47.878;15.914;2024-01-15T09:42:48;0.80;99.90
39849;DHT22;25518;47.878;15.914;2024-01-15T09:45:40;1.40;99.90
39849;DHT22;25518;47.878;15.914;2024-01-15T09:48:31;1.50;99.90
39849;DHT22;25518;47.878;15.914;2024-01-15T09:51:25;1.60;99.90
39849;DHT22;25518;47.878;15.914;2024-01-15T09:54:16;1.60;99.90
39849;DHT22;25518;47.878;15.914;2024-01-15T09:57:08;1.60;99.90
39849;DHT22;25518;47.878;15.914;2024-01-15T10:00:02;1.60;99.90
39849;DHT22;25518;47.878;15.914;2024-01-15T10:02:56;1.60;99.90
39849;DHT22;25518;47.878;15.914;2024-01-15T10:05:49;1.60;99.90
39849;DHT22;25518;47.878;15.914;2024-01-15T10:08:42;1.70;99.90
39849;DHT22;25518;47.878;15.914;2024-01-15T10:11:35;1.80;99.90
39849;DHT22;25518;47.878;15.914;2024-01-15T10:14:26;1.90;99.90
39849;DHT22;25518;47.878;15.914;2024-01-15T10:17:17;1.80;99.90
39849;DHT22;25518;47.878;15.914;2024-01-15T10:20:10;-0.80;99.90
39849;DHT22;25518;47.878;15.914;2024-01-15T10:23:03;0.60;99.90
39849;DHT22;25518;47.878;15.914;2024-01-15T10:25:57;1.70;99.90
39849;DHT22;25518;47.878;15.914;2024-01-15T10:28:50;1.90;99.90
39849;DHT22;25518;47.878;15.914;2024-01-15T10:31:44;1.80;99.90
39849;DHT22;25518;47.878;15.914;2024-01-15T10:34:40;1.90;99.90
39849;DHT22;25518;47.878;15.914;2024-01-15T10:37:33;2.00;99.90
39849;DHT22;25518;47.878;15.914;2024-01-15T10:40:25;2.10;99.90
39849;DHT22;25518;47.878;15.914;2024-01-15T10:43:16;2.10;99.90
39849;DHT22;25518;47.878;15.914;2024-01-15T10:46:08;2.10;99.90
39849;DHT22;25518;47.878;15.914;2024-01-15T10:49:01;2.10;99.90
39849;DHT22;25518;47.878;15.914;2024-01-15T10:51:53;2.10;99.90
39849;DHT22;25518;47.878;15.914;2024-01-15T10:54:45;2.20;99.90
39849;DHT22;25518;47.878;15.914;2024-01-15T10:57:37;2.30;99.90
39849;DHT22;25518;47.878;15.914;2024-01-15T11:00:29;2.50;99.90
39849;DHT22;25518;47.878;15.914;2024-01-15T11:03:21;2.40;99.90
39849;DHT22;25518;47.878;15.914;2024-01-15T11:06:22;2.50;99.90
39849;DHT22;25518;47.878;15.914;2024-01-15T11:09:14;2.50;99.90
39849;DHT22;25518;47.878;15.914;2024-01-15T11:12:10;2.50;99.90
39849;DHT22;25518;47.878;15.914;2024-01-15T11:15:03;2.50;99.90
39849;DHT22;25518;47.878;15.914;2024-01-15T11:18:00;2.40;99.90
39849;DHT22;25518;47.878;15.914;2024-01-15T11:24:08;2.50;99.90
39849;DHT22;25518;47.878;15.914;2024-01-15T11:27:03;2.60;99.90
39849;DHT22;25518;47.878;15.914;2024-01-15T11:30:12;2.50;99.90
39849;DHT22;25518;47.878;15.914;2024-01-15T11:33:03;2.40;99.90
39849;DHT22;25518;47.878;15.914;2024-01-15T11:35:55;2.40;99.90
39849;DHT22;25518;47.878;15.914;2024-01-15T11:38:46;1.50;99.90
39849;DHT22;25518;47.878;15.914;2024-01-15T11:41:38;2.40;99.90
39849;DHT22;25518;47.878;15.914;2024-01-15T11:44:31;2.50;99.90
39849;DHT22;25518;47.878;15.914;2024-01-15T11:50:43;2.50;99.90
39849;DHT22;25518;47.878;15.914;2024-01-15T11:53:43;2.50;99.90
39849;DHT22;25518;47.878;15.914;2024-01-15T11:56:35;2.40;99.90
39849;DHT22;25518;47.878;15.914;2024-01-15T11:59:27;2.50;99.90
39849;DHT22;25518;47.878;15.914;2024-01-15T12:02:18;2.40;99.90
39849;DHT22;25518;47.878;15.914;2024-01-15T12:05:11;2.40;99.90
39849;DHT22;25518;47.878;15.914;2024-01-15T12:08:04;2.40;99.90
39849;DHT22;25518;47.878;15.914;2024-01-15T12:11:06;2.50;99.90
39849;DHT22;25518;47.878;15.914;2024-01-15T12:13:58;2.50;99.90
39849;DHT22;25518;47.878;15.914;2024-01-15T12:16:50;2.40;99.90
39849;DHT22;25518;47.878;15.914;2024-01-15T12:19:43;2.30;99.90
39849;DHT22;25518;47.878;15.914;2024-01-15T12:22:35;2.30;99.90
39849;DHT22;25518;47.878;15.914;2024-01-15T12:25:27;2.30;99.90
39849;DHT22;25518;47.878;15.914;2024-01-15T12:28:20;2.20;99.90
39849;DHT22;25518;47.878;15.914;2024-01-15T12:31:11;1.00;99.90
39849;DHT22;25518;47.878;15.914;2024-01-15T12:34:02;2.10;99.90
39849;DHT22;25518;47.878;15.914;2024-01-15T12:36:57;2.00;99.90
39849;DHT22;25518;47.878;15.914;2024-01-15T12:39:49;2.00;99.90
39849;DHT22;25518;47.878;15.914;2024-01-15T12:42:41;2.00;99.90
39849;DHT22;25518;47.878;15.914;2024-01-15T12:45:33;2.20;99.90
39849;DHT22;25518;47.878;15.914;2024-01-15T12:48:26;1.00;99.90
39849;DHT22;25518;47.878;15.914;2024-01-15T12:51:17;2.20;99.90
39849;DHT22;25518;47.878;15.914;2024-01-15T12:54:09;1.20;99.90
39849;DHT22;25518;47.878;15.914;2024-01-15T12:57:00;2.10;99.90
39849;DHT22;25518;47.878;15.914;2024-01-15T12:59:54;2.10;99.90
39849;DHT22;25518;47.878;15.914;2024-01-15T13:02:45;2.00;99.90
39849;DHT22;25518;47.878;15.914;2024-01-15T13:05:37;1.90;99.90
39849;DHT22;25518;47.878;15.914;2024-01-15T13:08:29;1.80;99.90
39849;DHT22;25518;47.878;15.914;2024-01-15T13:11:21;1.90;99.90
39849;DHT22;25518;47.878;15.914;2024-01-15T13:14:13;1.80;99.90
39849;DHT22;25518;47.878;15.914;2024-01-15T13:17:04;1.80;99.90
39849;DHT22;25518;47.878;15.914;2024-01-15T13:19:57;1.70;99.90
39849;DHT22;25518;47.878;15.914;2024-01-15T13:22:49;1.70;99.90
39849;DHT22;25518;47.878;15.914;2024-01-15T13:25:40;1.80;99.90
39849;DHT22;25518;47.878;15.914;2024-01-15T13:28:32;1.80;99.90
39849;DHT22;25518;47.878;15.914;2024-01-15T13:31:23;1.70;99.90
39849;DHT22;25518;47.878;15.914;2024-01-15T13:34:14;1.60;99.90
39849;DHT22;25518;47.878;15.914;2024-01-15T13:37:05;1.50;99.90
39849;DHT22;25518;47.878;15.914;2024-01-15T13:39:57;1.40;99.90
39849;DHT22;25518;47.878;15.914;2024-01-15T13:42:49;1.30;99.90
39849;DHT22;25518;47.878;15.914;2024-01-15T13:45:42;1.10;99.90
39849;DHT22;25518;47.878;15.914;2024-01-15T13:48:34;1.20;99.90
39849;DHT22;25518;47.878;15.914;2024-01-15T13:51:25;1.10;99.90
39849;DHT22;25518;47.878;15.914;2024-01-15T13:54:16;1.20;99.90
39849;DHT22;25518;47.878;15.914;2024-01-15T13:57:07;1.10;99.90
39849;DHT22;25518;47.878;15.914;2024-01-15T13:59:59;1.10;99.90
39849;DHT22;25518;47.878;15.914;2024-01-15T14:02:50;1.00;99.90
39849;DHT22;25518;47.878;15.914;2024-01-15T14:05:42;1.00;99.90
39849;DHT22;25518;47.878;15.914;2024-01-15T14:08:34;1.10;99.90
39849;DHT22;25518;47.878;15.914;2024-01-15T14:11:27;1.00;99.90
39849;DHT22;25518;47.878;15.914;2024-01-15T14:14:18;1.00;99.90
39849;DHT22;25518;47.878;15.914;2024-01-15T14:17:10;1.00;99.90
39849;DHT22;25518;47.878;15.914;2024-01-15T14:20:01;1.10;99.90
39849;DHT22;25518;47.878;15.914;2024-01-15T14:22:53;1.00;99.90
39849;DHT22;25518;47.878;15.914;2024-01-15T14:25:45;1.00;99.90
39849;DHT22;25518;47.878;15.914;2024-01-15T14:28:36;1.00;99.90
39849;DHT22;25518;47.878;15.914;2024-01-15T14:31:27;0.90;99.90
39849;DHT22;25518;47.878;15.914;2024-01-15T14:34:19;0.80;99.90
39849;DHT22;25518;47.878;15.914;2024-01-15T14:37:13;0.80;99.90
39849;DHT22;25518;47.878;15.914;2024-01-15T14:40:06;0.80;99.90
39849;DHT22;25518;47.878;15.914;2024-01-15T14:42:58;0.80;99.90
39849;DHT22;25518;47.878;15.914;2024-01-15T14:45:50;0.70;99.90
39849;DHT22;25518;47.878;15.914;2024-01-15T14:48:41;0.70;99.90
39849;DHT22;25518;47.878;15.914;2024-01-15T14:51:33;0.60;99.90
39849;DHT22;25518;47.878;15.914;2024-01-15T14:54:24;0.60;99.90
39849;DHT22;25518;47.878;15.914;2024-01-15T14:57:16;0.60;99.90
39849;DHT22;25518;47.878;15.914;2024-01-15T15:00:08;0.50;99.90
39849;DHT22;25518;47.878;15.914;2024-01-15T15:03:00;0.50;99.90
39849;DHT22;25518;47.878;15.914;2024-01-15T15:05:51;0.50;99.90
39849;DHT22;25518;47.878;15.914;2024-01-15T15:08:43;0.40;99.90
39849;DHT22;25518;47.878;15.914;2024-01-15T15:11:34;0.40;99.90
39849;DHT22;25518;47.878;15.914;2024-01-15T15:14:26;0.40;99.90
39849;DHT22;25518;47.878;15.914;2024-01-15T15:17:17;0.40;99.90
39849;DHT22;25518;47.878;15.914;2024-01-15T15:20:09;0.30;99.90
39849;DHT22;25518;47.878;15.914;2024-01-15T15:23:01;0.30;99.90
39849;DHT22;25518;47.878;15.914;2024-01-15T15:25:52;0.30;99.90
39849;DHT22;25518;47.878;15.914;2024-01-15T15:28:43;0.30;99.90
39849;DHT22;25518;47.878;15.914;2024-01-15T15:31:36;0.30;99.90
39849;DHT22;25518;47.878;15.914;2024-01-15T15:34:28;0.20;99.90
39849;DHT22;25518;47.878;15.914;2024-01-15T15:37:20;0.20;99.90
39849;DHT22;25518;47.878;15.914;2024-01-15T15:40:11;0.20;99.90
39849;DHT22;25518;47.878;15.914;2024-01-15T15:43:04;0.20;99.90
39849;DHT22;25518;47.878;15.914;2024-01-15T15:45:56;0.20;99.90
39849;DHT22;25518;47.878;15.914;2024-01-15T15:48:48;0.20;99.90
39849;DHT22;25518;47.878;15.914;2024-01-15T15:51:40;0.30;99.90
39849;DHT22;25518;47.878;15.914;2024-01-15T15:54:31;0.40;99.90
39849;DHT22;25518;47.878;15.914;2024-01-15T15:57:23;0.50;99.90
39849;DHT22;25518;47.878;15.914;2024-01-15T16:00:16;0.50;99.90
39849;DHT22;25518;47.878;15.914;2024-01-15T16:03:07;0.30;99.90
39849;DHT22;25518;47.878;15.914;2024-01-15T16:05:58;0.30;99.90
39849;DHT22;25518;47.878;15.914;2024-01-15T16:08:50;0.50;99.90
39849;DHT22;25518;47.878;15.914;2024-01-15T16:11:41;0.40;99.90
39849;DHT22;25518;47.878;15.914;2024-01-15T16:14:33;0.30;99.90
39849;DHT22;25518;47.878;15.914;2024-01-15T16:17:24;0.30;99.90
39849;DHT22;25518;47.878;15.914;2024-01-15T16:20:17;0.20;99.90
39849;DHT22;25518;47.878;15.914;2024-01-15T16:23:08;0.10;99.90
39849;DHT22;25518;47.878;15.914;2024-01-15T16:26:00;0.10;99.90
39849;DHT22;25518;47.878;15.914;2024-01-15T16:28:51;0.20;99.90
39849;DHT22;25518;47.878;15.914;2024-01-15T16:31:42;0.20;99.90
39849;DHT22;25518;47.878;15.914;2024-01-15T16:34:34;0.30;99.90
39849;DHT22;25518;47.878;15.914;2024-01-15T16:37:26;0.30;99.90
39849;DHT22;25518;47.878;15.914;2024-01-15T16:40:17;0.10;99.90
39849;DHT22;25518;47.878;15.914;2024-01-15T16:43:09;0.10;99.90
39849;DHT22;25518;47.878;15.914;2024-01-15T16:46:00;0.00;99.90
39849;DHT22;25518;47.878;15.914;2024-01-15T16:48:51;0.20;99.90
39849;DHT22;25518;47.878;15.914;2024-01-15T16:51:43;0.00;99.90
39849;DHT22;25518;47.878;15.914;2024-01-15T16:54:34;0.10;99.90
39849;DHT22;25518;47.878;15.914;2024-01-15T16:57:26;0.20;99.90
39849;DHT22;25518;47.878;15.914;2024-01-15T17:00:17;0.20;99.90
39849;DHT22;25518;47.878;15.914;2024-01-15T17:03:08;0.20;99.90
39849;DHT22;25518;47.878;15.914;2024-01-15T17:06:00;0.30;99.90
39849;DHT22;25518;47.878;15.914;2024-01-15T17:08:52;0.30;99.90
39849;DHT22;25518;47.878;15.914;2024-01-15T17:11:43;0.30;99.90
39849;DHT22;25518;47.878;15.914;2024-01-15T17:14:34;0.30;99.90
39849;DHT22;25518;47.878;15.914;2024-01-15T17:17:26;0.20;99.90
39849;DHT22;25518;47.878;15.914;2024-01-15T17:20:17;-0.10;99.90
39849;DHT22;25518;47.878;15.914;2024-01-15T17:23:08;0.30;99.90
39849;DHT22;25518;47.878;15.914;2024-01-15T17:26:00;0.70;99.90
39849;DHT22;25518;47.878;15.914;2024-01-15T17:28:51;0.10;99.90
39849;DHT22;25518;47.878;15.914;2024-01-15T17:31:42;0.10;99.90
39849;DHT22;25518;47.878;15.914;2024-01-15T17:34:34;0.10;99.90
39849;DHT22;25518;47.878;15.914;2024-01-15T17:37:25;0.10;99.90
39849;DHT22;25518;47.878;15.914;2024-01-15T17:40:17;0.10;99.90
39849;DHT22;25518;47.878;15.914;2024-01-15T17:43:08;0.10;99.90
39849;DHT22;25518;47.878;15.914;2024-01-15T17:45:59;0.20;99.90
39849;DHT22;25518;47.878;15.914;2024-01-15T17:48:51;0.40;99.90
39849;DHT22;25518;47.878;15.914;2024-01-15T17:51:43;0.30;99.90
39849;DHT22;25518;47.878;15.914;2024-01-15T17:54:34;0.30;99.90
39849;DHT22;25518;47.878;15.914;2024-01-15T17:57:25;0.30;99.90
39849;DHT22;25518;47.878;15.914;2024-01-15T18:00:18;0.20;99.90
39849;DHT22;25518;47.878;15.914;2024-01-15T18:03:09;0.20;99.90
39849;DHT22;25518;47.878;15.914;2024-01-15T18:06:01;0.10;99.90
39849;DHT22;25518;47.878;15.914;2024-01-15T18:08:52;-2.50;99.90